Venango Regional Airport
KFKL : now visible

Airfield :











YOU CAN JOIN US ON...

 
LOGIN :

Register | Disclaimer

   EN    FR    IT 

 









Legend :    VFR   Marginal VFR   IFR   Intensive IFR   Very Intensive IFR
Visi :
Ceiling :
>= 8 km
>= 3000ft
5 to 8 km
1000 to 3000 ft
1500m to 5 km
500 to 1000 ft
800 to 1500m
200 to 500 ft
< 800m
< 200 ft
Symbols :   Thunderstorms  Fog  Heavy snow  Heavy precipitations  Wind > 20 kt






- Airport Elevation : 1540 ft


KFKL - Venango Regional

CURRENT METAR :
  • 011456Z AUTO 26008KT 9SM -SN BKN023 M08/M11 A3032 RMK AO2 SLP295 P0000 60000 T10831111 51016 FZRANO

EXPIRED METARs :
  • 011356Z AUTO 24007KT 9SM -SN FEW027 M09/M11 A3029 RMK AO2 SLP287 P0000 T10941106 FZRANO
  • 011345Z AUTO 23007KT 9SM -SN SCT027 M10/M11 A3029 RMK AO2 P0000 FZRANO
  • 011256Z AUTO 21004KT 9SM -SN BKN027 M12/M13 A3027 RMK AO2 SLP282 P0000 T11171128 FZRANO
  • 011156Z AUTO 24004KT 9SM -SN OVC025 M11/M12 A3026 RMK AO2 SLP277 P0000 60000 T11111122 11111 21128 53008 FZRANO

TAF KFKL
Valid from the 01 at 14:00 until the 02 at 12:00 UTC


011350Z 0114/0212 27007KT P6SM BKN080
FM020700 22007KT P6SM BKN250
KZOB FIR / North America



MET'MAP, your aeronautical weather chart ! - Copyright ORBIFLY December 2007 - Disclaimer

ORBIFLY MET'MAP TEAM :

Programming & Development : Alexandra Zaïnal
Original concept : Baudouin d'Aumeries
Technical & hardware support : Manuel Goepfert
Assistance : Marc-Olivier Méhu




SOURCES & CREDITS :

   NOAA       Earth
Advisory